createdAt,value
2018-08-09T00:00:07.390Z,1006.32
2018-08-09T00:00:47.660Z,1006.32
2018-08-09T00:01:28.151Z,1006.31
2018-08-09T00:02:08.550Z,1006.32
2018-08-09T00:02:48.965Z,1006.32
2018-08-09T00:03:29.574Z,1006.3
2018-08-09T00:04:09.974Z,1006.31
2018-08-09T00:04:50.412Z,1006.31
2018-08-09T00:05:30.805Z,1006.31
2018-08-09T00:06:11.394Z,1006.34
2018-08-09T00:06:51.769Z,1006.35
2018-08-09T00:07:32.191Z,1006.35
2018-08-09T00:08:12.545Z,1006.33
2018-08-09T00:08:53.026Z,1006.34
2018-08-09T00:09:33.533Z,1006.32
2018-08-09T00:10:14.619Z,1006.35
2018-08-09T00:10:55.828Z,1006.33
2018-08-09T00:11:35.668Z,1006.35
2018-08-09T00:12:16.152Z,1006.32
2018-08-09T00:12:58.210Z,1006.3
2018-08-09T00:13:38.594Z,1006.27
2018-08-09T00:14:19.017Z,1006.25
2018-08-09T00:14:59.297Z,1006.3
2018-08-09T00:15:39.762Z,1006.27
2018-08-09T00:16:20.154Z,1006.29
2018-08-09T00:17:00.537Z,1006.28
2018-08-09T00:17:40.977Z,1006.3
2018-08-09T00:18:21.380Z,1006.3
2018-08-09T00:19:01.813Z,1006.26
2018-08-09T00:19:42.229Z,1006.3
2018-08-09T00:20:22.605Z,1006.27
2018-08-09T00:21:02.999Z,1006.29
2018-08-09T00:21:43.406Z,1006.26
2018-08-09T00:22:23.843Z,1006.32
2018-08-09T00:23:04.265Z,1006.35
2018-08-09T00:23:44.760Z,1006.3
2018-08-09T00:24:25.099Z,1006.29
2018-08-09T00:25:05.558Z,1006.27
2018-08-09T00:25:45.968Z,1006.26
2018-08-09T00:26:26.388Z,1006.23
2018-08-09T00:27:06.877Z,1006.26
2018-08-09T00:27:47.256Z,1006.27
2018-08-09T00:28:27.746Z,1006.28
2018-08-09T00:29:08.113Z,1006.26
2018-08-09T00:29:48.491Z,1006.26
2018-08-09T00:30:28.894Z,1006.28
2018-08-09T00:31:09.362Z,1006.28
2018-08-09T00:31:49.710Z,1006.3
2018-08-09T00:32:30.108Z,1006.29
2018-08-09T00:33:10.551Z,1006.27
2018-08-09T00:33:50.983Z,1006.26
2018-08-09T00:34:31.404Z,1006.28
2018-08-09T00:35:11.823Z,1006.31
2018-08-09T00:35:52.216Z,1006.29
2018-08-09T00:36:32.624Z,1006.34
2018-08-09T00:37:13.028Z,1006.31
2018-08-09T00:37:53.548Z,1006.31
2018-08-09T00:38:33.975Z,1006.29
2018-08-09T00:39:14.325Z,1006.31
2018-08-09T00:39:54.771Z,1006.31
2018-08-09T00:40:35.137Z,1006.25
2018-08-09T00:41:15.576Z,1006.26
2018-08-09T00:41:55.998Z,1006.3
2018-08-09T00:42:36.459Z,1006.29
2018-08-09T00:43:17.009Z,1006.28
2018-08-09T00:43:57.388Z,1006.27
2018-08-09T00:44:37.823Z,1006.25
2018-08-09T00:45:19.985Z,1006.27
2018-08-09T00:46:00.444Z,1006.25
2018-08-09T00:46:40.797Z,1006.24
2018-08-09T00:47:21.149Z,1006.24
2018-08-09T00:48:01.558Z,1006.24
2018-08-09T00:48:41.951Z,1006.22
2018-08-09T00:49:22.384Z,1006.23
2018-08-09T00:50:02.820Z,1006.23
2018-08-09T00:50:43.232Z,1006.19
2018-08-09T00:51:23.635Z,1006.17
2018-08-09T00:52:03.939Z,1006.13
2018-08-09T00:52:44.356Z,1006.11
2018-08-09T00:53:24.768Z,1006.1
2018-08-09T00:54:05.173Z,1006.08
2018-08-09T00:54:45.603Z,1006.1
2018-08-09T00:57:13.355Z,1006.1
2018-08-09T00:57:53.927Z,1006.1
2018-08-09T00:58:34.312Z,1006.11
2018-08-09T00:59:14.706Z,1006.13
2018-08-09T00:59:55.130Z,1006.08
2018-08-09T01:00:35.634Z,1006.09
2018-08-09T01:01:15.919Z,1006.08
2018-08-09T01:01:56.389Z,1006.1
2018-08-09T01:02:36.766Z,1006.07
2018-08-09T01:03:17.209Z,1006.12
2018-08-09T01:03:57.637Z,1006.06
2018-08-09T01:04:37.989Z,1006.06
2018-08-09T01:05:18.433Z,1006.05
2018-08-09T01:05:58.815Z,1006.05
2018-08-09T01:06:39.278Z,1006.01
2018-08-09T01:07:19.707Z,1005.96
2018-08-09T01:08:00.075Z,1005.94
2018-08-09T01:08:40.510Z,1005.96
2018-08-09T01:09:20.933Z,1005.95
2018-08-09T01:10:01.288Z,1005.98
2018-08-09T01:10:41.718Z,1005.97
2018-08-09T01:11:22.201Z,1006.01
2018-08-09T01:12:02.589Z,1006
2018-08-09T01:12:43.065Z,1006.01
2018-08-09T01:13:23.382Z,1005.94
2018-08-09T01:14:03.723Z,1006
2018-08-09T01:14:44.145Z,1005.96
2018-08-09T01:15:24.512Z,1005.96
2018-08-09T01:16:04.907Z,1005.94
2018-08-09T01:16:45.342Z,1005.96
2018-08-09T01:17:25.742Z,1005.94
2018-08-09T01:18:06.149Z,1005.95
2018-08-09T01:18:46.589Z,1005.89
2018-08-09T01:19:27.025Z,1005.9
2018-08-09T01:20:07.424Z,1005.89
2018-08-09T01:20:47.867Z,1005.94
2018-08-09T01:21:28.299Z,1005.93
2018-08-09T01:22:08.750Z,1005.92
2018-08-09T01:22:49.150Z,1005.91
2018-08-09T01:23:29.585Z,1005.91
2018-08-09T01:24:09.949Z,1005.91
2018-08-09T01:24:50.409Z,1005.91
2018-08-09T01:25:30.805Z,1005.91
2018-08-09T01:26:11.253Z,1005.91
2018-08-09T01:26:51.656Z,1005.86
2018-08-09T01:27:32.080Z,1005.91
2018-08-09T01:28:12.551Z,1005.83
2018-08-09T01:28:52.894Z,1005.86
2018-08-09T01:29:33.342Z,1005.86
2018-08-09T01:30:13.701Z,1005.84
2018-08-09T01:30:54.127Z,1005.89
2018-08-09T01:31:34.549Z,1005.91
2018-08-09T01:32:14.968Z,1005.93
2018-08-09T01:32:55.535Z,1005.9
2018-08-09T01:33:35.802Z,1005.91
2018-08-09T01:34:16.320Z,1005.92
2018-08-09T01:34:56.635Z,1005.92
2018-08-09T01:35:37.103Z,1005.88
2018-08-09T01:36:17.467Z,1005.88
2018-08-09T01:36:57.907Z,1005.9
2018-08-09T01:37:38.287Z,1005.87
2018-08-09T01:38:18.669Z,1005.86
2018-08-09T01:38:59.038Z,1005.87
2018-08-09T01:39:39.510Z,1005.84
2018-08-09T01:40:19.870Z,1005.81
2018-08-09T01:41:00.274Z,1005.83
2018-08-09T01:41:40.655Z,1005.83
2018-08-09T01:42:21.108Z,1005.82
2018-08-09T01:43:01.489Z,1005.81
2018-08-09T01:43:41.898Z,1005.81
2018-08-09T01:44:22.278Z,1005.79
2018-08-09T01:45:02.653Z,1005.77
2018-08-09T01:45:43.084Z,1005.79
2018-08-09T01:46:23.478Z,1005.78
2018-08-09T01:47:03.940Z,1005.79
2018-08-09T01:47:44.365Z,1005.78
2018-08-09T01:48:24.758Z,1005.82
2018-08-09T01:49:05.156Z,1005.83
2018-08-09T01:49:45.564Z,1005.91
2018-08-09T01:50:26.021Z,1005.85
2018-08-09T01:51:06.447Z,1005.89
2018-08-09T01:51:46.841Z,1005.88
2018-08-09T01:52:27.257Z,1005.92
2018-08-09T01:53:07.677Z,1005.88
2018-08-09T01:53:48.095Z,1005.84
2018-08-09T01:54:28.458Z,1005.88
2018-08-09T01:55:08.877Z,1005.86
2018-08-09T01:55:49.296Z,1005.87
2018-08-09T01:56:29.718Z,1005.87
2018-08-09T01:57:10.228Z,1005.89
2018-08-09T01:57:50.544Z,1005.9
2018-08-09T01:58:30.987Z,1005.87
2018-08-09T01:59:11.366Z,1005.85
2018-08-09T01:59:51.882Z,1005.9
2018-08-09T02:00:32.532Z,1005.88
2018-08-09T02:01:13.242Z,1005.89
2018-08-09T02:01:53.584Z,1005.9
2018-08-09T02:02:34.144Z,1005.88
2018-08-09T02:03:14.566Z,1005.87
2018-08-09T02:03:54.856Z,1005.86
2018-08-09T02:04:35.368Z,1005.83
2018-08-09T02:05:15.865Z,1005.87
2018-08-09T02:05:56.155Z,1005.84
2018-08-09T02:06:36.827Z,1005.83
2018-08-09T02:07:17.303Z,1005.79
2018-08-09T02:07:57.629Z,1005.78
2018-08-09T02:08:38.305Z,1005.77
2018-08-09T02:09:18.603Z,1005.75
2018-08-09T02:09:59.215Z,1005.75
2018-08-09T02:10:39.604Z,1005.74
2018-08-09T02:11:20.060Z,1005.73
2018-08-09T02:12:00.517Z,1005.73
2018-08-09T02:12:41.191Z,1005.73
2018-08-09T02:13:21.563Z,1005.72
2018-08-09T02:14:02.022Z,1005.69
2018-08-09T02:14:42.576Z,1005.71
2018-08-09T02:15:23.013Z,1005.71
2018-08-09T02:16:03.492Z,1005.69
2018-08-09T02:16:44.306Z,1005.67
2018-08-09T02:17:24.617Z,1005.66
2018-08-09T02:18:05.183Z,1005.62
2018-08-09T02:18:45.636Z,1005.57
2018-08-09T02:19:25.835Z,1005.58
2018-08-09T02:20:06.236Z,1005.58
2018-08-09T02:20:46.713Z,1005.61
2018-08-09T02:21:27.072Z,1005.51
2018-08-09T02:22:07.515Z,1005.57
2018-08-09T02:22:47.820Z,1005.51
2018-08-09T02:23:28.381Z,1005.52
2018-08-09T02:24:08.810Z,1005.49
2018-08-09T02:24:49.294Z,1005.48
2018-08-09T02:25:29.736Z,1005.44
2018-08-09T02:26:10.198Z,1005.44
2018-08-09T02:26:50.493Z,1005.42
2018-08-09T02:27:30.919Z,1005.38
2018-08-09T02:28:11.275Z,1005.36
2018-08-09T02:28:51.719Z,1005.33
2018-08-09T02:29:32.258Z,1005.35
2018-08-09T02:30:12.663Z,1005.32
2018-08-09T02:30:53.042Z,1005.3
2018-08-09T02:31:33.488Z,1005.3
2018-08-09T02:32:13.935Z,1005.28
2018-08-09T02:32:54.469Z,1005.29
2018-08-09T02:33:34.951Z,1005.3
2018-08-09T02:34:15.228Z,1005.33
2018-08-09T02:34:55.822Z,1005.34
2018-08-09T02:35:36.279Z,1005.33
2018-08-09T02:36:16.913Z,1005.39
2018-08-09T02:36:57.191Z,1005.37
2018-08-09T02:37:37.701Z,1005.39
2018-08-09T02:38:18.109Z,1005.37
2018-08-09T02:38:58.479Z,1005.34
2018-08-09T02:39:38.954Z,1005.37
2018-08-09T02:40:19.306Z,1005.32
2018-08-09T02:40:59.782Z,1005.32
2018-08-09T02:41:40.138Z,1005.25
2018-08-09T02:42:20.485Z,1005.26
2018-08-09T02:43:01.255Z,1005.22
2018-08-09T02:43:41.510Z,1005.17
2018-08-09T02:44:21.916Z,1005.14
2018-08-09T02:45:02.514Z,1005.12
2018-08-09T02:45:42.787Z,1005.09
2018-08-09T02:46:23.164Z,1005.1
2018-08-09T02:47:03.637Z,1005.08
2018-08-09T02:47:44.027Z,1005.08
2018-08-09T02:48:24.489Z,1005.1
2018-08-09T02:49:04.854Z,1005.15
2018-08-09T02:49:45.332Z,1005.14
2018-08-09T02:50:25.853Z,1005.1
2018-08-09T02:51:06.233Z,1005.13
2018-08-09T02:51:46.536Z,1005.1
2018-08-09T02:52:26.877Z,1005.05
2018-08-09T02:53:07.271Z,1005.06
2018-08-09T02:53:47.716Z,1005.03
2018-08-09T02:54:28.038Z,1005.1
2018-08-09T02:55:08.504Z,1005.09
2018-08-09T02:55:48.938Z,1005.08
2018-08-09T02:56:29.340Z,1005.1
2018-08-09T02:57:09.808Z,1005.13
2018-08-09T02:57:50.173Z,1005.1
2018-08-09T02:58:30.601Z,1005.14
2018-08-09T02:59:11.006Z,1005.14
2018-08-09T02:59:51.391Z,1005.17
2018-08-09T03:00:31.745Z,1005.16
2018-08-09T03:01:12.263Z,1005.2
2018-08-09T03:01:52.651Z,1005.2
2018-08-09T03:02:33.033Z,1005.24
2018-08-09T03:03:13.348Z,1005.21
2018-08-09T03:03:53.733Z,1005.23
2018-08-09T03:04:34.153Z,1005.22
2018-08-09T03:05:14.539Z,1005.21
2018-08-09T03:05:54.899Z,1005.23
2018-08-09T03:06:35.416Z,1005.19
2018-08-09T03:07:15.989Z,1005.23
2018-08-09T03:07:56.736Z,1005.18
2018-08-09T03:08:37.033Z,1005.19
2018-08-09T03:09:17.620Z,1005.16
2018-08-09T03:09:58.229Z,1005.14
2018-08-09T03:10:38.746Z,1005.17
2018-08-09T03:11:19.128Z,1005.18
2018-08-09T03:11:59.629Z,1005.11
2018-08-09T03:12:40.045Z,1005.11
2018-08-09T03:13:20.512Z,1005.11
2018-08-09T03:14:00.893Z,1005.09
2018-08-09T03:14:41.243Z,1005.08
2018-08-09T03:15:21.629Z,1005.09
2018-08-09T03:16:02.197Z,1005.12
2018-08-09T03:16:42.459Z,1005.13
2018-08-09T03:17:22.900Z,1005.12
2018-08-09T03:18:03.288Z,1005.14
2018-08-09T03:18:43.694Z,1005.07
2018-08-09T03:19:24.519Z,1005.06
2018-08-09T03:20:04.809Z,1005.08
2018-08-09T03:20:45.294Z,1005.09
2018-08-09T03:21:25.778Z,1005.11
2018-08-09T03:22:06.091Z,1005.07
2018-08-09T03:22:46.617Z,1005.11
2018-08-09T03:23:26.938Z,1005.08
2018-08-09T03:24:07.419Z,1005.11
2018-08-09T03:24:47.940Z,1005.07
2018-08-09T03:25:28.393Z,1005.05
2018-08-09T03:26:08.855Z,1005.07
2018-08-09T03:26:49.333Z,1005.08
2018-08-09T03:27:29.628Z,1005.05
2018-08-09T03:28:10.036Z,1005.06
2018-08-09T03:28:50.530Z,1005.05
2018-08-09T03:29:31.096Z,1005.06
2018-08-09T03:30:11.481Z,1005.07
2018-08-09T03:30:51.976Z,1005.08
2018-08-09T03:31:32.503Z,1005.08
2018-08-09T03:32:12.951Z,1005.1
2018-08-09T03:32:53.504Z,1005.07
2018-08-09T03:33:33.961Z,1005.07
2018-08-09T03:34:14.415Z,1005.09
2018-08-09T03:34:54.937Z,1005.1
2018-08-09T03:35:35.436Z,1005.08
2018-08-09T03:36:15.792Z,1005.12
2018-08-09T03:36:56.074Z,1005.09
2018-08-09T03:37:36.427Z,1005.08
2018-08-09T03:38:16.873Z,1005.1
2018-08-09T03:38:57.264Z,1005.08
2018-08-09T03:39:37.688Z,1005.08
2018-08-09T03:40:18.041Z,1005.1
2018-08-09T03:40:58.530Z,1005.12
2018-08-09T03:41:38.929Z,1005.15
2018-08-09T03:42:19.329Z,1005.12
2018-08-09T03:42:59.691Z,1005.14
2018-08-09T03:43:40.165Z,1005.09
2018-08-09T03:44:20.499Z,1005.11
2018-08-09T03:45:00.839Z,1005.1
2018-08-09T03:45:41.336Z,1005.09
2018-08-09T03:46:21.894Z,1005.09
2018-08-09T03:47:02.210Z,1005.08
2018-08-09T03:47:42.874Z,1005.08
2018-08-09T03:48:23.239Z,1005.09
2018-08-09T03:49:03.540Z,1005.09
2018-08-09T03:49:43.968Z,1005.08
2018-08-09T03:50:24.392Z,1005.09
2018-08-09T03:51:04.789Z,1005.09
2018-08-09T03:51:45.282Z,1005.11
2018-08-09T03:52:25.615Z,1005.12
2018-08-09T03:53:06.050Z,1005.12
2018-08-09T03:53:46.516Z,1005.14
2018-08-09T03:54:26.970Z,1005.14
2018-08-09T03:55:07.678Z,1005.15
2018-08-09T03:55:48.282Z,1005.12
2018-08-09T03:56:28.537Z,1005.12
2018-08-09T03:57:09.146Z,1005.12
2018-08-09T03:57:49.540Z,1005.12
2018-08-09T03:58:29.873Z,1005.12
2018-08-09T03:59:10.316Z,1005.15
2018-08-09T03:59:50.958Z,1005.11
2018-08-09T04:00:31.262Z,1005.12
2018-08-09T04:01:11.676Z,1005.1
2018-08-09T04:01:52.042Z,1005.12
2018-08-09T04:02:32.545Z,1005.09
2018-08-09T04:03:12.898Z,1005.12
2018-08-09T04:03:53.370Z,1005.1
2018-08-09T04:04:34.464Z,1005.1
2018-08-09T04:05:15.063Z,1005.08
2018-08-09T04:05:55.852Z,1004.99
2018-08-09T04:06:36.298Z,1005.04
2018-08-09T04:07:16.550Z,1005.02
2018-08-09T04:07:56.999Z,1004.99
2018-08-09T04:08:37.307Z,1004.97
2018-08-09T04:09:17.622Z,1004.95
2018-08-09T04:10:00.711Z,1004.93
2018-08-09T04:10:41.083Z,1004.92
2018-08-09T04:11:21.536Z,1004.96
2018-08-09T04:12:02.444Z,1004.94
2018-08-09T04:12:43.651Z,1004.93
2018-08-09T04:13:24.262Z,1004.9
2018-08-09T04:14:04.561Z,1004.87
2018-08-09T04:14:45.124Z,1004.87
2018-08-09T04:15:26.390Z,1004.87
2018-08-09T04:16:07.526Z,1004.89
2018-08-09T04:16:48.126Z,1004.84
2018-08-09T04:17:28.881Z,1004.84
2018-08-09T04:18:09.565Z,1004.84
2018-08-09T04:18:50.480Z,1004.87
2018-08-09T04:19:31.524Z,1004.82
2018-08-09T04:20:11.837Z,1004.85
2018-08-09T04:20:52.230Z,1004.87
2018-08-09T04:21:32.885Z,1004.88
2018-08-09T04:22:13.154Z,1004.87
2018-08-09T04:22:53.528Z,1004.84
2018-08-09T04:23:34.028Z,1004.89
2018-08-09T04:24:14.428Z,1004.88
2018-08-09T04:24:54.810Z,1004.88
2018-08-09T04:25:35.270Z,1004.87
2018-08-09T04:26:15.670Z,1004.89
2018-08-09T04:26:56.082Z,1004.9
2018-08-09T05:08:47.382Z,1004.69
2018-08-09T05:09:28.220Z,1004.66
2018-08-09T05:10:08.549Z,1004.67
2018-08-09T05:10:49.060Z,1004.65
2018-08-09T05:11:29.673Z,1004.6
2018-08-09T05:12:10.376Z,1004.62
2018-08-09T05:12:50.735Z,1004.61
2018-08-09T05:13:31.278Z,1004.63
2018-08-09T05:14:11.689Z,1004.58
2018-08-09T05:14:52.027Z,1004.59
2018-08-09T05:15:33.387Z,1004.6
2018-08-09T05:16:13.815Z,1004.63
2018-08-09T05:16:54.267Z,1004.64
2018-08-09T05:17:34.722Z,1004.57
2018-08-09T05:18:15.105Z,1004.55
2018-08-09T05:18:55.535Z,1004.58
2018-08-09T05:19:36.049Z,1004.56
2018-08-09T05:20:16.650Z,1004.53
2018-08-09T05:20:57.666Z,1004.52
2018-08-09T05:21:38.348Z,1004.52
2018-08-09T05:22:20.076Z,1004.49
2018-08-09T05:23:04.317Z,1004.46
2018-08-09T05:23:45.678Z,1004.45
2018-08-09T05:24:26.471Z,1004.45
2018-08-09T05:25:13.494Z,1004.46
2018-08-09T05:27:59.448Z,1004.47
2018-08-09T05:28:58.812Z,1004.46
2018-08-09T05:30:08.892Z,1004.46
2018-08-09T05:31:01.550Z,1004.47
2018-08-09T05:31:53.870Z,1004.43
2018-08-09T05:32:45.952Z,1004.43
2018-08-09T05:33:40.238Z,1004.4
2018-08-09T05:34:34.299Z,1004.34
2018-08-09T05:37:09.265Z,1004.35
2018-08-09T05:38:01.794Z,1004.37
2018-08-09T05:38:53.937Z,1004.41
2018-08-09T05:39:45.950Z,1004.38
2018-08-09T05:40:39.522Z,1004.4
2018-08-09T05:41:32.158Z,1004.36
2018-08-09T05:42:25.152Z,1004.38
2018-08-09T05:43:34.277Z,1004.34
2018-08-09T05:44:47.811Z,1004.35
2018-08-09T05:46:10.336Z,1004.39
2018-08-09T05:47:19.980Z,1004.4
2018-08-09T05:48:32.961Z,1004.39
2018-08-09T05:49:44.861Z,1004.41
2018-08-09T05:50:59.921Z,1004.35
2018-08-09T05:52:08.909Z,1004.37
2018-08-09T05:53:21.949Z,1004.34
2018-08-09T05:54:54.810Z,1004.37
2018-08-09T05:57:03.412Z,1004.25
2018-08-09T05:58:16.312Z,1004.18
2018-08-09T05:59:27.258Z,1004.17
2018-08-09T06:00:42.256Z,1004.15
2018-08-09T06:01:52.231Z,1004.11
2018-08-09T06:02:32.743Z,1004.07
2018-08-09T06:03:13.047Z,1004.04
2018-08-09T06:03:53.546Z,1004.03
2018-08-09T06:04:33.884Z,1004.07
2018-08-09T06:05:14.396Z,1004.06
2018-08-09T06:05:54.790Z,1004.12
2018-08-09T06:06:35.177Z,1004.14
2018-08-09T06:07:15.551Z,1004.11
2018-08-09T06:07:56.058Z,1004.07
2018-08-09T06:08:36.337Z,1004.12
2018-08-09T06:09:16.778Z,1004.1
2018-08-09T06:09:57.223Z,1004.05
2018-08-09T06:10:37.736Z,1004.05
2018-08-09T06:11:18.112Z,1004.02
2018-08-09T06:11:58.492Z,1004.03
2018-08-09T06:12:38.949Z,1004.11
2018-08-09T06:13:19.429Z,1004.1
2018-08-09T06:13:59.786Z,1004.17
2018-08-09T06:14:40.254Z,1004.18
2018-08-09T06:15:20.634Z,1004.15
2018-08-09T06:16:01.186Z,1004.14
2018-08-09T06:16:42.167Z,1004.09
2018-08-09T06:17:22.615Z,1004.08
2018-08-09T06:18:03.159Z,1004.04
2018-08-09T06:18:43.691Z,1003.99
2018-08-09T06:19:24.204Z,1003.95
2018-08-09T06:20:04.612Z,1003.93
2018-08-09T06:20:45.207Z,1003.92
2018-08-09T06:21:25.725Z,1003.92
2018-08-09T06:22:06.207Z,1003.84
2018-08-09T06:22:46.615Z,1003.84
2018-08-09T06:23:26.969Z,1003.79
2018-08-09T06:24:07.487Z,1003.75
2018-08-09T06:24:47.855Z,1003.74
2018-08-09T06:25:28.326Z,1003.72
2018-08-09T06:26:08.762Z,1003.71
2018-08-09T06:26:49.152Z,1003.67
2018-08-09T06:27:29.603Z,1003.67
2018-08-09T06:28:10.061Z,1003.61
2018-08-09T06:28:50.473Z,1003.57
2018-08-09T06:29:31.656Z,1003.57
2018-08-09T06:30:11.990Z,1003.62
2018-08-09T06:30:52.411Z,1003.56
2018-08-09T06:31:34.791Z,1003.53
2018-08-09T06:32:15.158Z,1003.52
2018-08-09T06:32:55.647Z,1003.55
2018-08-09T06:33:36.402Z,1003.58
2018-08-09T06:34:16.641Z,1003.59
2018-08-09T06:34:57.083Z,1003.63
2018-08-09T06:35:37.497Z,1003.63
2018-08-09T06:36:17.944Z,1003.63
2018-08-09T06:36:58.329Z,1003.68
2018-08-09T06:37:39.074Z,1003.68
2018-08-09T06:38:19.550Z,1003.61
2018-08-09T06:38:59.962Z,1003.63
2018-08-09T06:39:40.378Z,1003.6
2018-08-09T06:40:20.801Z,1003.57
2018-08-09T06:41:02.650Z,1003.58
2018-08-09T06:41:42.380Z,1003.57
2018-08-09T06:42:23.217Z,1003.58
2018-08-09T06:43:03.850Z,1003.61
2018-08-09T06:43:44.178Z,1003.63
2018-08-09T06:44:24.606Z,1003.59
2018-08-09T06:45:05.026Z,1003.6
2018-08-09T06:45:45.425Z,1003.55
2018-08-09T06:46:25.992Z,1003.54
2018-08-09T06:47:06.394Z,1003.5
2018-08-09T06:47:46.989Z,1003.49
2018-08-09T06:48:27.352Z,1003.46
2018-08-09T06:49:07.731Z,1003.48
2018-08-09T06:49:48.137Z,1003.44
2018-08-09T06:50:29.230Z,1003.49
2018-08-09T06:51:09.380Z,1003.48
2018-08-09T06:51:49.927Z,1003.49
2018-08-09T06:52:30.418Z,1003.52
2018-08-09T06:53:10.768Z,1003.53
2018-08-09T06:53:51.207Z,1003.53
2018-08-09T06:54:33.515Z,1003.55
2018-08-09T06:55:14.454Z,1003.55
2018-08-09T06:55:54.972Z,1003.48
2018-08-09T06:56:35.348Z,1003.49
2018-08-09T06:57:15.759Z,1003.52
2018-08-09T06:57:56.212Z,1003.5
2018-08-09T06:58:36.758Z,1003.49
2018-08-09T06:59:17.236Z,1003.48
2018-08-09T06:59:57.944Z,1003.48
2018-08-09T07:00:38.735Z,1003.46
2018-08-09T07:01:19.058Z,1003.46
2018-08-09T07:02:00.162Z,1003.46
2018-08-09T07:02:40.412Z,1003.5
2018-08-09T07:03:21.236Z,1003.48
2018-08-09T07:04:01.974Z,1003.51
2018-08-09T07:04:42.273Z,1003.54
2018-08-09T07:05:50.738Z,1003.34
2018-08-09T07:06:37.203Z,1003.48
2018-08-09T07:07:18.683Z,1003.46
2018-08-09T07:07:59.105Z,1003.45
2018-08-09T07:08:39.605Z,1003.44
2018-08-09T07:09:19.960Z,1003.43
2018-08-09T07:10:00.411Z,1003.43
2018-08-09T07:10:40.801Z,1003.43
2018-08-09T07:11:21.187Z,1003.45
2018-08-09T07:12:01.651Z,1003.41
2018-08-09T07:12:42.114Z,1003.46
2018-08-09T07:13:22.661Z,1003.44
2018-08-09T07:14:03.060Z,1003.45
2018-08-09T07:14:43.573Z,1003.42
2018-08-09T07:15:23.991Z,1003.43
2018-08-09T07:16:04.436Z,1003.43
2018-08-09T07:16:45.093Z,1003.41
2018-08-09T07:17:25.970Z,1003.41
2018-08-09T07:18:06.628Z,1003.38
2018-08-09T07:18:47.850Z,1003.33
2018-08-09T07:19:27.650Z,1003.34
2018-08-09T07:20:08.158Z,1003.34
2018-08-09T07:20:48.630Z,1003.33
2018-08-09T07:21:29.248Z,1003.3
2018-08-09T07:22:09.643Z,1003.29
2018-08-09T07:22:50.045Z,1003.23
2018-08-09T07:23:30.664Z,1003.23
2018-08-09T07:24:11.014Z,1003.26
2018-08-09T07:24:51.444Z,1003.28
2018-08-09T07:25:31.859Z,1003.26
2018-08-09T07:26:12.312Z,1003.25
2018-08-09T07:26:52.715Z,1003.27
2018-08-09T07:27:33.135Z,1003.28
2018-08-09T07:28:14.388Z,1003.28
2018-08-09T07:28:54.487Z,1003.32
2018-08-09T07:29:34.881Z,1003.3
2018-08-09T07:30:15.279Z,1003.3
2018-08-09T07:30:55.736Z,1003.29
2018-08-09T07:31:40.193Z,1003.28
2018-08-09T07:33:52.560Z,1003.33
2018-08-09T07:35:02.041Z,1003.29
2018-08-09T07:36:11.660Z,1003.32
2018-08-09T07:37:34.957Z,1003.33
2018-08-09T07:38:35.770Z,1003.33
2018-08-09T07:39:16.161Z,1003.32
2018-08-09T07:39:56.621Z,1003.28
2018-08-09T07:40:36.976Z,1003.23
2018-08-09T07:41:17.643Z,1003.23
2018-08-09T07:41:58.053Z,1003.2
2018-08-09T07:42:38.549Z,1003.24
2018-08-09T07:43:18.967Z,1003.19
2018-08-09T07:43:59.402Z,1003.18
2018-08-09T07:44:40.190Z,1003.18
2018-08-09T07:45:20.763Z,1003.19
2018-08-09T07:46:01.333Z,1003.19
2018-08-09T07:46:42.013Z,1003.13
2018-08-09T07:47:22.357Z,1003.14
2018-08-09T07:48:02.843Z,1003.14
2018-08-09T07:48:43.340Z,1003.11
2018-08-09T07:49:23.852Z,1003.13
2018-08-09T07:50:04.264Z,1003.13
2018-08-09T07:50:44.577Z,1003.12
2018-08-09T07:51:25.102Z,1002.99
2018-08-09T07:52:05.574Z,1003.05
2018-08-09T07:52:45.886Z,1003.04
2018-08-09T07:53:26.346Z,1003.03
2018-08-09T07:54:06.856Z,1003
2018-08-09T07:54:47.305Z,1003
2018-08-09T07:55:27.868Z,1002.96
2018-08-09T07:56:08.375Z,1002.93
2018-08-09T07:56:48.848Z,1002.93
2018-08-09T07:57:29.337Z,1002.91
2018-08-09T07:58:10.004Z,1002.89
2018-08-09T07:58:50.745Z,1002.91
2018-08-09T07:59:32.011Z,1002.88
2018-08-09T08:00:11.901Z,1002.89
2018-08-09T08:00:52.191Z,1002.91
2018-08-09T08:01:32.719Z,1002.92
2018-08-09T08:02:13.013Z,1002.95
2018-08-09T08:02:53.558Z,1002.97
2018-08-09T08:03:34.062Z,1002.91
2018-08-09T08:04:14.510Z,1002.9
2018-08-09T08:04:54.946Z,1002.84
2018-08-09T08:05:35.410Z,1002.89
2018-08-09T08:06:15.876Z,1002.85
2018-08-09T08:06:56.355Z,1002.83
2018-08-09T08:07:36.765Z,1002.89
2018-08-09T08:08:17.249Z,1002.86
2018-08-09T08:08:57.835Z,1002.85
2018-08-09T08:09:38.167Z,1002.84
2018-08-09T08:10:18.570Z,1002.85
2018-08-09T08:10:59.121Z,1002.82
2018-08-09T08:11:39.683Z,1002.81
2018-08-09T08:12:20.065Z,1002.82
2018-08-09T08:13:00.475Z,1002.76
2018-08-09T08:13:40.909Z,1002.78
2018-08-09T08:14:21.472Z,1002.79
2018-08-09T08:15:01.939Z,1002.78
2018-08-09T08:15:42.344Z,1002.76
2018-08-09T08:16:23.012Z,1002.76
2018-08-09T08:17:03.349Z,1002.79
2018-08-09T08:17:44.118Z,1002.71
2018-08-09T08:18:24.378Z,1002.79
2018-08-09T08:19:04.953Z,1002.77
2018-08-09T08:19:46.242Z,1002.78
2018-08-09T08:20:26.831Z,1002.79
2018-08-09T08:21:07.390Z,1002.75
2018-08-09T08:21:48.487Z,1002.8
2018-08-09T08:22:28.913Z,1002.82
2018-08-09T08:23:09.394Z,1002.82
2018-08-09T08:23:50.422Z,1002.79
2018-08-09T08:24:30.809Z,1002.77
2018-08-09T08:25:11.367Z,1002.74
2018-08-09T08:25:52.323Z,1002.77
2018-08-09T08:26:32.985Z,1002.75
2018-08-09T08:27:13.936Z,1002.7
2018-08-09T08:27:54.003Z,1002.7
2018-08-09T08:28:34.852Z,1002.66
2018-08-09T08:29:15.318Z,1002.7
2018-08-09T08:29:55.666Z,1002.7
2018-08-09T08:30:36.226Z,1002.73
2018-08-09T08:31:16.657Z,1002.74
2018-08-09T08:31:56.957Z,1002.66
2018-08-09T08:32:37.369Z,1002.73
2018-08-09T08:33:17.939Z,1002.71
2018-08-09T08:33:58.404Z,1002.68
2018-08-09T08:34:39.065Z,1002.72
2018-08-09T08:35:19.557Z,1002.66
2018-08-09T08:36:00.355Z,1002.6
2018-08-09T08:36:40.786Z,1002.63
2018-08-09T08:37:21.912Z,1002.62
2018-08-09T08:38:02.941Z,1002.56
2018-08-09T08:38:43.505Z,1002.54
2018-08-09T08:39:23.875Z,1002.53
2018-08-09T08:40:04.512Z,1002.52
2018-08-09T08:40:45.280Z,1002.63
2018-08-09T08:41:25.998Z,1002.66
2018-08-09T08:42:06.817Z,1002.63
2018-08-09T08:42:47.650Z,1002.61
2018-08-09T08:43:29.466Z,1002.64
2018-08-09T08:44:09.189Z,1002.66
2018-08-09T08:44:49.930Z,1002.61
2018-08-09T08:45:30.733Z,1002.55
2018-08-09T08:46:12.073Z,1002.54
2018-08-09T08:46:52.087Z,1002.56
2018-08-09T08:47:33.481Z,1002.51
2018-08-09T08:48:13.416Z,1002.5
2018-08-09T08:48:54.000Z,1002.51
2018-08-09T08:49:34.463Z,1002.5
2018-08-09T08:50:15.765Z,1002.48
2018-08-09T08:50:56.311Z,1002.53
2018-08-09T08:51:36.759Z,1002.46
2018-08-09T08:52:17.281Z,1002.46
2018-08-09T08:52:57.792Z,1002.49
2018-08-09T08:53:38.199Z,1002.42
2018-08-09T08:54:18.959Z,1002.39
2018-08-09T08:54:59.884Z,1002.49
2018-08-09T08:55:40.329Z,1002.4
2018-08-09T08:56:20.765Z,1002.38
2018-08-09T08:57:01.259Z,1002.39
2018-08-09T08:57:41.675Z,1002.34
2018-08-09T08:58:22.055Z,1002.45
2018-08-09T08:59:02.558Z,1002.43
2018-08-09T08:59:43.045Z,1002.38
2018-08-09T09:00:23.832Z,1002.34
2018-08-09T09:01:04.330Z,1002.31
2018-08-09T09:01:44.771Z,1002.33
2018-08-09T09:02:25.939Z,1002.34
2018-08-09T09:03:06.538Z,1002.3
2018-08-09T09:03:47.953Z,1002.3
2018-08-09T09:04:29.137Z,1002.26
2018-08-09T09:05:09.103Z,1002.24
2018-08-09T09:05:49.998Z,1002.28
2018-08-09T09:06:30.381Z,1002.23
2018-08-09T09:07:10.842Z,1002.22
2018-08-09T09:07:51.292Z,1002.23
2018-08-09T09:08:32.044Z,1002.3
2018-08-09T09:09:12.953Z,1002.17
2018-08-09T09:09:53.952Z,1002.15
2018-08-09T09:10:34.657Z,1002.16
2018-08-09T09:11:15.444Z,1002.1
2018-08-09T09:11:55.395Z,1002.11
2018-08-09T09:12:36.950Z,1002.11
2018-08-09T09:13:17.038Z,1002.09
2018-08-09T09:13:58.088Z,1002.09
2018-08-09T09:14:38.370Z,1002.12
2018-08-09T09:15:19.588Z,1002.01